Wetterdaten: Woche 26.11.01 - 02.12.01 (KW48)
Datum Zeit Temperatur Luftfeuchte Luftdruck Regenmenge Wind Richtung Taupunkt Windchill
26.11.2001 00:00 4.0 C 96 % 1011.8 hPa 0.0 l/m 4.2 km/h (1 Bft) O-SO 3.5 C 3.1 C
26.11.2001 01:00 4.1 C 96 % 1011.2 hPa 0.0 l/m 3.7 km/h (1 Bft) O-SO 3.6 C 3.3 C
26.11.2001 02:00 4.1 C 97 % 1010.8 hPa 0.0 l/m 2.7 km/h (1 Bft) O-SO 3.7 C 3.6 C
26.11.2001 03:00 4.3 C 97 % 1010.8 hPa 0.0 l/m 0.1 km/h (0 Bft) SO 3.9 C 4.3 C
26.11.2001 04:00 4.4 C 97 % 1009.8 hPa 0.3 l/m 0.5 km/h (0 Bft) SO 4.0 C 4.4 C
26.11.2001 05:00 4.5 C 98 % 1009.7 hPa 0.0 l/m 0.2 km/h (0 Bft) N 4.2 C 4.5 C
26.11.2001 06:00 4.5 C 98 % 1009.7 hPa 0.0 l/m 2.0 km/h (1 Bft) O-SO 4.2 C 4.3 C
26.11.2001 07:00 4.5 C 98 % 1009.7 hPa 0.0 l/m 0.2 km/h (0 Bft) N 4.3 C 4.5 C
26.11.2001 08:00 4.8 C 98 % 1009.7 hPa 0.0 l/m 1.2 km/h (1 Bft) O 4.5 C 4.6 C
26.11.2001 09:00 5.2 C 95 % 1009.4 hPa 0.0 l/m 1.9 km/h (1 Bft) O-SO 4.5 C 4.9 C
26.11.2001 10:00 6.0 C 93 % 1009.5 hPa 0.0 l/m 0.3 km/h (0 Bft) N 4.9 C 6.0 C
26.11.2001 11:00 7.0 C 90 % 1008.7 hPa 0.0 l/m 0.5 km/h (0 Bft) S-SW 5.5 C 6.9 C
26.11.2001 12:00 7.4 C 87 % 1007.7 hPa 0.0 l/m 0.3 km/h (0 Bft) N 5.4 C 7.4 C
26.11.2001 13:00 7.6 C 86 % 1007.3 hPa 0.0 l/m 0.6 km/h (0 Bft) W 5.4 C 7.6 C
26.11.2001 14:00 7.3 C 86 % 1006.6 hPa 0.0 l/m 0.1 km/h (0 Bft) N 5.1 C 7.3 C
26.11.2001 15:00 6.7 C 89 % 1006.6 hPa 0.0 l/m 3.3 km/h (1 Bft) O-SO 5.0 C 6.3 C
26.11.2001 16:00 6.3 C 89 % 1006.6 hPa 0.0 l/m 3.2 km/h (1 Bft) O-SO 4.7 C 5.8 C
26.11.2001 17:00 6.0 C 91 % 1006.6 hPa 0.0 l/m 2.0 km/h (1 Bft) O-SO 4.7 C 5.9 C
26.11.2001 18:00 6.0 C 92 % 1006.6 hPa 0.0 l/m 2.8 km/h (1 Bft) O-SO 4.8 C 5.7 C
26.11.2001 19:00 5.8 C 94 % 1006.6 hPa 0.0 l/m 1.7 km/h (1 Bft) O-SO 4.9 C 5.7 C
26.11.2001 20:00 5.7 C 95 % 1006.6 hPa 0.0 l/m 0.0 km/h (0 Bft) N 5.0 C 5.7 C
26.11.2001 21:00 5.6 C 95 % 1005.6 hPa 0.0 l/m 0.0 km/h (0 Bft) N 4.8 C 5.6 C
26.11.2001 22:00 5.5 C 96 % 1005.6 hPa 0.0 l/m 0.0 km/h (0 Bft) N 4.9 C 5.5 C
26.11.2001 23:00 5.5 C 96 % 1005.6 hPa 0.0 l/m 0.0 km/h (0 Bft) N 4.9 C 5.5 C
27.11.2001 00:00 5.5 C 96 % 1005.6 hPa 0.0 l/m 0.0 km/h (0 Bft) N 4.9 C 5.5 C
27.11.2001 01:00 5.5 C 96 % 1005.6 hPa 0.0 l/m 0.0 km/h (0 Bft) N 4.9 C 5.5 C
27.11.2001 02:00 5.4 C 96 % 1005.6 hPa 0.0 l/m 0.0 km/h (0 Bft) N 4.8 C 5.4 C
27.11.2001 03:00 5.3 C 96 % 1004.8 hPa 0.0 l/m 0.0 km/h (0 Bft) N 4.7 C 5.3 C
27.11.2001 04:00 5.2 C 97 % 1004.5 hPa 0.6 l/m 0.8 km/h (0 Bft) O-SO 4.8 C 5.2 C
27.11.2001 05:00 5.2 C 97 % 1004.5 hPa 0.0 l/m 1.0 km/h (0 Bft) O 4.7 C 5.0 C
27.11.2001 06:00 5.1 C 97 % 1004.5 hPa 0.0 l/m 0.5 km/h (0 Bft) O-SO 4.7 C 5.1 C
27.11.2001 07:00 5.1 C 97 % 1005.1 hPa 0.3 l/m 0.5 km/h (0 Bft) O 4.7 C 5.1 C
27.11.2001 08:00 5.2 C 97 % 1005.6 hPa 0.3 l/m 2.4 km/h (1 Bft) O-SO 4.7 C 4.9 C
27.11.2001 09:00 5.5 C 96 % 1005.6 hPa 0.0 l/m 1.7 km/h (1 Bft) O-SO 4.9 C 5.4 C
27.11.2001 10:00 5.9 C 95 % 1006.5 hPa 0.3 l/m 0.6 km/h (0 Bft) SO 5.1 C 5.9 C
27.11.2001 11:00 6.4 C 94 % 1006.6 hPa 0.0 l/m 0.4 km/h (0 Bft) S-SW 5.5 C 6.3 C
27.11.2001 12:00 6.8 C 88 % 1006.2 hPa 0.0 l/m 4.0 km/h (1 Bft) W-NW 4.9 C 6.2 C
27.11.2001 13:00 6.7 C 86 % 1006.3 hPa 0.3 l/m 6.8 km/h (2 Bft) W 4.6 C 5.5 C
27.11.2001 14:00 6.3 C 86 % 1006.6 hPa 0.0 l/m 19.2 km/h (3 Bft) W-NW 4.1 C 2.9 C
27.11.2001 15:00 5.4 C 87 % 1007.2 hPa 0.0 l/m 24.5 km/h (4 Bft) W-NW 3.5 C 1.1 C
27.11.2001 16:00 5.1 C 86 % 1008.3 hPa 0.0 l/m 16.1 km/h (3 Bft) W-NW 3.0 C 1.9 C
27.11.2001 17:00 4.7 C 87 % 1009.2 hPa 0.0 l/m 22.6 km/h (4 Bft) W-NW 2.7 C 0.4 C
27.11.2001 18:00 4.2 C 88 % 1010.3 hPa 0.0 l/m 26.2 km/h (4 Bft) W-NW 2.5 C -0.5 C
27.11.2001 19:00 3.5 C 86 % 1011.4 hPa 0.0 l/m 17.0 km/h (3 Bft) W-NW 1.4 C -0.0 C
27.11.2001 20:00 2.4 C 89 % 1012.3 hPa 0.0 l/m 12.9 km/h (3 Bft) W-NW 0.7 C -0.8 C
27.11.2001 21:00 1.5 C 90 % 1012.8 hPa 0.0 l/m 7.5 km/h (2 Bft) W-NW 0.0 C -0.3 C
27.11.2001 22:00 0.8 C 91 % 1012.8 hPa 0.0 l/m 2.3 km/h (1 Bft) W -0.4 C 0.3 C
27.11.2001 23:00 0.2 C 92 % 1013.3 hPa 0.0 l/m 2.5 km/h (1 Bft) W-SW -1.0 C -0.4 C
28.11.2001 00:00 -0.9 C 92 % 1013.8 hPa 0.0 l/m 1.6 km/h (1 Bft) S-SO -2.1 C -1.2 C
28.11.2001 01:00 -1.6 C 92 % 1013.9 hPa 0.0 l/m 2.3 km/h (1 Bft) SO -2.7 C -2.3 C
28.11.2001 02:00 -1.5 C 94 % 1013.9 hPa 0.0 l/m 8.9 km/h (2 Bft) SO -2.4 C -4.8 C
28.11.2001 03:00 -1.9 C 94 % 1013.7 hPa 0.0 l/m 3.8 km/h (1 Bft) O-SO -2.7 C -3.1 C
28.11.2001 04:00 -1.9 C 94 % 1013.5 hPa 0.0 l/m 2.1 km/h (1 Bft) O-SO -2.8 C -2.5 C
28.11.2001 05:00 -1.4 C 94 % 1012.8 hPa 0.0 l/m 1.0 km/h (0 Bft) SO -2.3 C -1.8 C
28.11.2001 06:00 -0.6 C 93 % 1012.8 hPa 0.0 l/m 1.4 km/h (1 Bft) SO -1.6 C -0.8 C
28.11.2001 07:00 0.6 C 89 % 1012.8 hPa 0.0 l/m 7.4 km/h (2 Bft) SO -1.0 C -1.6 C
28.11.2001 08:00 1.5 C 82 % 1012.7 hPa 0.0 l/m 4.4 km/h (1 Bft) SO -1.2 C 0.5 C
28.11.2001 09:00 2.0 C 81 % 1012.2 hPa 0.0 l/m 2.5 km/h (1 Bft) O-SO -1.0 C 1.3 C
28.11.2001 10:00 1.5 C 89 % 1012.8 hPa 0.3 l/m 0.1 km/h (0 Bft) N -0.2 C 1.5 C
28.11.2001 11:00 2.2 C 92 % 1012.8 hPa 0.9 l/m 0.1 km/h (0 Bft) N 1.1 C 2.2 C
28.11.2001 12:00 3.2 C 92 % 1012.8 hPa 1.3 l/m 0.5 km/h (0 Bft) O-SO 2.1 C 3.2 C
28.11.2001 13:00 3.0 C 93 % 1012.8 hPa 0.6 l/m 2.6 km/h (1 Bft) S 2.0 C 2.5 C
28.11.2001 14:00 2.7 C 94 % 1013.0 hPa 0.3 l/m 9.0 km/h (2 Bft) O-SO 1.8 C 0.3 C
28.11.2001 15:00 2.9 C 94 % 1013.9 hPa 0.0 l/m 7.8 km/h (2 Bft) O-SO 2.0 C 0.9 C
28.11.2001 16:00 3.4 C 94 % 1014.7 hPa 0.0 l/m 2.8 km/h (1 Bft) O-SO 2.5 C 2.9 C
28.11.2001 17:00 3.7 C 93 % 1015.4 hPa 0.0 l/m 1.2 km/h (1 Bft) O-SO 2.6 C 3.7 C
28.11.2001 18:00 3.5 C 94 % 1016.1 hPa 0.3 l/m 3.3 km/h (1 Bft) O-SO 2.6 C 2.8 C
28.11.2001 19:00 3.4 C 93 % 1017.1 hPa 0.0 l/m 4.5 km/h (1 Bft) O-SO 2.4 C 2.4 C
28.11.2001 20:00 2.8 C 93 % 1018.1 hPa 0.0 l/m 6.9 km/h (2 Bft) W 1.9 C 1.1 C
28.11.2001 21:00 2.5 C 93 % 1018.2 hPa 0.0 l/m 3.4 km/h (1 Bft) O 1.5 C 1.7 C
28.11.2001 22:00 2.6 C 93 % 1019.1 hPa 0.0 l/m 1.9 km/h (1 Bft) O-SO 1.6 C 2.2 C
28.11.2001 23:00 2.2 C 93 % 1019.3 hPa 0.0 l/m 1.1 km/h (0 Bft) O 1.3 C 2.0 C
29.11.2001 00:00 2.6 C 93 % 1020.1 hPa 0.0 l/m 0.9 km/h (0 Bft) O-SO 1.6 C 2.4 C
29.11.2001 01:00 2.6 C 93 % 1020.1 hPa 0.0 l/m 0.0 km/h (0 Bft) N 1.6 C 2.6 C
29.11.2001 02:00 2.3 C 93 % 1020.1 hPa 0.0 l/m 4.1 km/h (1 Bft) O-SO 1.3 C 1.3 C
29.11.2001 03:00 1.9 C 94 % 1020.4 hPa 0.0 l/m 3.9 km/h (1 Bft) O-SO 1.0 C 1.0 C
29.11.2001 04:00 1.0 C 95 % 1020.1 hPa 0.0 l/m 6.7 km/h (2 Bft) O-SO 0.3 C -1.0 C
29.11.2001 05:00 0.2 C 96 % 1020.4 hPa 0.0 l/m 6.9 km/h (2 Bft) O-SO -0.4 C -1.8 C
29.11.2001 06:00 -0.0 C 96 % 1021.2 hPa 0.0 l/m 2.5 km/h (1 Bft) O-SO -0.5 C -0.5 C
29.11.2001 07:00 -0.1 C 97 % 1021.2 hPa 0.0 l/m 1.3 km/h (1 Bft) O -0.5 C -0.5 C
29.11.2001 08:00 0.1 C 98 % 1021.3 hPa 0.0 l/m 2.8 km/h (1 Bft) O-SO -0.2 C -0.7 C
29.11.2001 09:00 0.5 C 98 % 1021.2 hPa 0.0 l/m 0.1 km/h (0 Bft) O-SO 0.2 C 0.5 C
29.11.2001 10:00 1.0 C 97 % 1021.2 hPa 0.0 l/m 4.6 km/h (1 Bft) O-SO 0.6 C -0.1 C
29.11.2001 11:00 1.6 C 93 % 1021.0 hPa 0.0 l/m 1.3 km/h (1 Bft) O 0.6 C 1.5 C
29.11.2001 12:00 2.5 C 90 % 1020.1 hPa 0.0 l/m 2.7 km/h (1 Bft) O-SO 1.0 C 1.9 C
29.11.2001 13:00 3.5 C 84 % 1019.4 hPa 0.0 l/m 6.1 km/h (2 Bft) S 1.1 C 2.1 C
29.11.2001 14:00 4.6 C 83 % 1018.5 hPa 0.0 l/m 3.2 km/h (1 Bft) O-SO 2.0 C 4.0 C
29.11.2001 15:00 4.4 C 82 % 1018.1 hPa 0.0 l/m 0.4 km/h (0 Bft) W 1.7 C 4.4 C
29.11.2001 16:00 3.6 C 86 % 1018.1 hPa 0.0 l/m 0.0 km/h (0 Bft) N 1.4 C 3.6 C
29.11.2001 17:00 3.7 C 84 % 1017.7 hPa 0.0 l/m 1.1 km/h (1 Bft) SO 1.3 C 3.5 C
29.11.2001 18:00 3.8 C 84 % 1017.0 hPa 0.0 l/m 0.2 km/h (0 Bft) N 1.2 C 3.8 C
29.11.2001 19:00 3.7 C 86 % 1017.0 hPa 0.3 l/m 0.5 km/h (0 Bft) N 1.6 C 3.6 C
29.11.2001 20:00 3.4 C 91 % 1016.7 hPa 0.6 l/m 2.6 km/h (1 Bft) SO 2.0 C 3.0 C
29.11.2001 21:00 3.4 C 91 % 1016.0 hPa 0.3 l/m 6.1 km/h (2 Bft) SO 2.1 C 2.0 C
29.11.2001 22:00 3.4 C 91 % 1014.9 hPa 0.0 l/m 9.2 km/h (2 Bft) SO 2.1 C 1.1 C
29.11.2001 23:00 3.6 C 91 % 1014.0 hPa 0.3 l/m 7.7 km/h (2 Bft) SO 2.2 C 1.8 C
30.11.2001 00:00 4.0 C 92 % 1013.4 hPa 0.3 l/m 12.6 km/h (3 Bft) SO 2.8 C 1.0 C
30.11.2001 01:00 4.0 C 91 % 1012.8 hPa 0.3 l/m 11.7 km/h (2 Bft) SO 2.7 C 1.3 C
30.11.2001 02:00 4.1 C 91 % 1012.6 hPa 0.6 l/m 11.4 km/h (2 Bft) O-SO 2.8 C 1.5 C
30.11.2001 03:00 4.2 C 92 % 1011.8 hPa 0.6 l/m 9.6 km/h (2 Bft) S-SO 3.0 C 2.0 C
30.11.2001 04:00 4.3 C 93 % 1011.4 hPa 0.0 l/m 7.3 km/h (2 Bft) SO 3.2 C 2.7 C
30.11.2001 05:00 4.5 C 93 % 1010.8 hPa 0.0 l/m 8.9 km/h (2 Bft) SO 3.4 C 2.3 C
30.11.2001 06:00 4.8 C 92 % 1010.8 hPa 0.0 l/m 5.4 km/h (1 Bft) SO 3.7 C 3.8 C
30.11.2001 07:00 5.1 C 91 % 1010.8 hPa 0.0 l/m 2.7 km/h (1 Bft) S-SO 3.8 C 4.7 C
30.11.2001 08:00 5.3 C 92 % 1011.0 hPa 0.0 l/m 6.5 km/h (2 Bft) SO 4.0 C 3.9 C
30.11.2001 09:00 5.8 C 91 % 1011.8 hPa 0.0 l/m 5.0 km/h (1 Bft) S 4.4 C 4.9 C
30.11.2001 10:00 6.3 C 89 % 1011.8 hPa 0.0 l/m 5.8 km/h (2 Bft) S 4.7 C 5.4 C
30.11.2001 11:00 6.8 C 89 % 1011.8 hPa 0.0 l/m 3.0 km/h (1 Bft) S 5.1 C 6.5 C
30.11.2001 12:00 7.1 C 89 % 1011.8 hPa 0.0 l/m 3.1 km/h (1 Bft) S 5.5 C 6.8 C
30.11.2001 13:00 7.4 C 89 % 1011.8 hPa 0.0 l/m 3.7 km/h (1 Bft) S-SO 5.8 C 7.0 C
30.11.2001 14:00 7.5 C 91 % 1011.8 hPa 0.3 l/m 5.2 km/h (1 Bft) SO 6.0 C 6.8 C
30.11.2001 15:00 7.5 C 92 % 1011.8 hPa 0.0 l/m 5.8 km/h (2 Bft) SO 6.3 C 6.6 C
30.11.2001 16:00 7.5 C 94 % 1011.8 hPa 1.3 l/m 1.9 km/h (1 Bft) O-NO 6.6 C 7.3 C
30.11.2001 17:00 7.6 C 95 % 1012.8 hPa 1.3 l/m 2.4 km/h (1 Bft) SO 6.8 C 7.4 C
30.11.2001 18:00 7.7 C 95 % 1012.8 hPa 1.6 l/m 5.6 km/h (1 Bft) SO 6.9 C 6.9 C
30.11.2001 19:00 7.8 C 95 % 1012.8 hPa 1.6 l/m 10.9 km/h (2 Bft) SO 7.0 C 5.9 C
30.11.2001 20:00 7.9 C 96 % 1013.8 hPa 1.9 l/m 9.2 km/h (2 Bft) SO 7.2 C 6.3 C
30.11.2001 21:00 7.9 C 96 % 1013.9 hPa 2.5 l/m 9.3 km/h (2 Bft) SO 7.3 C 6.3 C
30.11.2001 22:00 8.0 C 95 % 1013.9 hPa 1.3 l/m 8.3 km/h (2 Bft) SO 7.3 C 6.7 C
30.11.2001 23:00 8.0 C 95 % 1013.9 hPa 0.0 l/m 7.5 km/h (2 Bft) SO 7.2 C 6.9 C
01.12.2001 00:00 8.0 C 93 % 1013.9 hPa 0.0 l/m 4.2 km/h (1 Bft) SO 7.0 C 7.5 C
01.12.2001 01:00 8.0 C 93 % 1013.9 hPa 0.0 l/m 1.4 km/h (1 Bft) SO 6.9 C 7.9 C
01.12.2001 02:00 7.9 C 93 % 1014.1 hPa 0.0 l/m 2.1 km/h (1 Bft) O-SO 6.8 C 7.8 C
01.12.2001 03:00 7.9 C 93 % 1014.2 hPa 0.0 l/m 1.0 km/h (0 Bft) O-SO 6.8 C 7.8 C
01.12.2001 04:00 7.9 C 93 % 1013.9 hPa 0.0 l/m 1.0 km/h (0 Bft) S-SO 6.8 C 7.8 C
01.12.2001 05:00 7.9 C 93 % 1013.9 hPa 0.0 l/m 0.5 km/h (0 Bft) O-SO 6.8 C 7.9 C
01.12.2001 06:00 7.8 C 93 % 1013.9 hPa 0.0 l/m 1.8 km/h (1 Bft) SO 6.8 C 7.7 C
01.12.2001 07:00 7.8 C 92 % 1014.8 hPa 0.0 l/m 2.1 km/h (1 Bft) SO 6.6 C 7.6 C
01.12.2001 08:00 8.0 C 91 % 1014.9 hPa 0.0 l/m 2.0 km/h (1 Bft) O-SO 6.6 C 7.8 C
01.12.2001 09:00 8.4 C 89 % 1014.9 hPa 0.0 l/m 2.0 km/h (1 Bft) O-SO 6.7 C 8.2 C
01.12.2001 10:00 8.9 C 87 % 1015.3 hPa 0.0 l/m 1.4 km/h (1 Bft) S-SO 6.8 C 8.9 C
01.12.2001 11:00 9.9 C 83 % 1014.9 hPa 0.0 l/m 1.1 km/h (0 Bft) SO 7.1 C 9.9 C
01.12.2001 12:00 10.2 C 82 % 1014.9 hPa 0.0 l/m 1.1 km/h (1 Bft) O-SO 7.3 C 10.2 C
01.12.2001 13:00 10.3 C 82 % 1014.9 hPa 0.0 l/m 2.0 km/h (1 Bft) O-SO 7.4 C 10.3 C
01.12.2001 14:00 9.8 C 86 % 1014.9 hPa 0.6 l/m 0.6 km/h (0 Bft) O-SO 7.5 C 9.8 C
01.12.2001 15:00 9.2 C 92 % 1015.4 hPa 0.6 l/m 0.7 km/h (0 Bft) SO 8.0 C 9.2 C
01.12.2001 16:00 9.2 C 92 % 1016.0 hPa 0.0 l/m 0.3 km/h (0 Bft) N 8.0 C 9.2 C
01.12.2001 17:00 9.0 C 93 % 1016.0 hPa 0.0 l/m 1.8 km/h (1 Bft) O-SO 8.0 C 9.0 C
01.12.2001 18:00 9.0 C 93 % 1016.8 hPa 0.0 l/m 2.6 km/h (1 Bft) W 8.0 C 8.7 C
01.12.2001 19:00 9.2 C 91 % 1017.0 hPa 0.0 l/m 9.9 km/h (2 Bft) W-NW 7.8 C 7.8 C
01.12.2001 20:00 9.1 C 88 % 1017.5 hPa 0.0 l/m 10.2 km/h (2 Bft) W-NW 7.3 C 7.6 C
01.12.2001 21:00 8.7 C 89 % 1018.1 hPa 0.0 l/m 0.0 km/h (0 Bft) N 6.9 C 8.7 C
01.12.2001 22:00 8.5 C 89 % 1018.1 hPa 0.0 l/m 0.0 km/h (0 Bft) N 6.7 C 8.5 C
01.12.2001 23:00 8.7 C 88 % 1018.1 hPa 0.0 l/m 0.3 km/h (0 Bft) NO 6.8 C 8.7 C
02.12.2001 00:00 8.4 C 89 % 1018.1 hPa 0.0 l/m 0.0 km/h (0 Bft) N 6.7 C 8.4 C
02.12.2001 01:00 7.8 C 92 % 1018.1 hPa 0.0 l/m 2.3 km/h (1 Bft) O 6.5 C 7.5 C
02.12.2001 02:00 7.6 C 93 % 1018.7 hPa 0.0 l/m 5.6 km/h (1 Bft) O-SO 6.5 C 6.7 C
02.12.2001 03:00 7.4 C 93 % 1019.1 hPa 0.0 l/m 0.2 km/h (0 Bft) O-SO 6.3 C 7.4 C
02.12.2001 04:00 7.2 C 94 % 1018.9 hPa 0.0 l/m 0.0 km/h (0 Bft) O-SO 6.3 C 7.2 C
02.12.2001 05:00 7.2 C 95 % 1018.3 hPa 0.0 l/m 0.1 km/h (0 Bft) N 6.4 C 7.2 C
02.12.2001 06:00 7.2 C 95 % 1019.1 hPa 0.0 l/m 0.0 km/h (0 Bft) N 6.5 C 7.2 C
02.12.2001 07:00 7.1 C 95 % 1019.1 hPa 0.0 l/m 0.0 km/h (0 Bft) N 6.4 C 7.1 C
02.12.2001 08:00 7.2 C 96 % 1019.1 hPa 0.0 l/m 0.0 km/h (0 Bft) N 6.6 C 7.2 C
02.12.2001 09:00 7.6 C 94 % 1019.1 hPa 0.0 l/m 0.0 km/h (0 Bft) N 6.8 C 7.6 C
02.12.2001 10:00 8.1 C 91 % 1019.1 hPa 0.0 l/m 0.3 km/h (0 Bft) W-NW 6.7 C 8.1 C
02.12.2001 11:00 8.8 C 88 % 1018.5 hPa 0.0 l/m 0.0 km/h (0 Bft) N 6.9 C 8.8 C
02.12.2001 12:00 9.8 C 83 % 1018.1 hPa 0.0 l/m 0.1 km/h (0 Bft) N 7.0 C 9.8 C
02.12.2001 13:00 10.2 C 80 % 1017.6 hPa 0.0 l/m 1.2 km/h (1 Bft) O 6.9 C 10.2 C
02.12.2001 14:00 10.2 C 79 % 1017.1 hPa 0.0 l/m 0.7 km/h (0 Bft) O 6.6 C 10.2 C
02.12.2001 15:00 10.0 C 80 % 1017.0 hPa 0.0 l/m 0.0 km/h (0 Bft) N 6.7 C 10.0 C
02.12.2001 16:00 9.5 C 83 % 1017.1 hPa 0.0 l/m 0.0 km/h (0 Bft) N 6.8 C 9.5 C
02.12.2001 17:00 9.1 C 86 % 1017.9 hPa 0.0 l/m 0.0 km/h (0 Bft) N 6.8 C 9.1 C
02.12.2001 18:00 8.6 C 90 % 1018.1 hPa 0.0 l/m 0.0 km/h (0 Bft) N 7.1 C 8.6 C
02.12.2001 19:00 8.5 C 90 % 1018.1 hPa 0.0 l/m 0.0 km/h (0 Bft) N 7.0 C 8.5 C
02.12.2001 20:00 8.1 C 91 % 1018.1 hPa 0.0 l/m 0.0 km/h (0 Bft) N 6.7 C 8.1 C
02.12.2001 21:00 8.0 C 91 % 1018.1 hPa 0.0 l/m 0.0 km/h (0 Bft) N 6.7 C 8.0 C
02.12.2001 22:00 7.9 C 92 % 1018.1 hPa 0.0 l/m 1.3 km/h (1 Bft) O 6.6 C 7.8 C
02.12.2001 23:00 7.7 C 91 % 1018.1 hPa 0.0 l/m 0.0 km/h (0 Bft) N 6.4 C 7.7 C
Min-Datum _ 28.11.01 28.11.01 27.11.01 - 26.11.01 - 28.11.01 28.11.01
_ Min-Zeit 04:40 09:04 03:15 - 00:53 - 01:46 02:46
Minimum _ -2.2 C 77 % 1004.5 hPa - 0.0 km/h (0 Bft) - -3.4 C -5.7 C
Max-Datum _ 01.12.01 26.11.01 29.11.01 30.11.01 27.11.01 - 01.12.01 01.12.01
_ Max-Zeit 13:07 02:50 08:50 20:00 18:45 - 18:55 13:07
Maximum _ 10.5 C 99 % 1022.2 hPa 2.5 l/m 52.5 km/h
W-NW (7 Bft)
- 8.2 C 10.5 C
Durchschnitt _ 5.3 C 92 % 1013.6 hPa #22.2 l/m 3.5 km/h (1 Bft) O-SO 4.0 C 4.7 C

Durchschnitt Minimum Temp.5.1 C
Durchschnitt Maximum Temp.5.6 C
© Kaiko 2001